Lake Worth, FL (33460)

5:19 PM EDT on July 25, 2016 (GMT -0400)
Lake Clarke Shores - Caribbean Rd. East | | Change Station

Elev 16 ft 26.63 °N, 80.07 °W | Updated 1 second ago

Scattered Clouds
Scattered Clouds
92.5 °F
Feels Like 110 °F
N
8.1
Wind Variable Wind from East
Gusts 8.1 mph

Today
High -- | Low -- °F
--% Chance of Precip.
Yesterday
High -- | Low -- °F
Precip. -- in
Pressure 30.03 in
Visibility 10.0 miles
Clouds Scattered Clouds 2600 ft
Scattered Clouds 3500 ft
Scattered Clouds 24000 ft
Heat Index 110 °F
Dew Point 79 °F
Humidity 65%
Rainfall 0.00 in
Snow Depth Not available.
6:41 AM 8:11 PM
Waning Gibbous, 62% visible
METAR KPBI 252053Z 14012KT 10SM SCT026 SCT035 SCT240 32/23 A3003 RMK AO2 SLP169 CB DSNT SW-W NW T03170233 58013
Pressure 30.03 in
Visibility 10.0 miles
Clouds Scattered Clouds 2600 ft
Scattered Clouds 3500 ft
Scattered Clouds 24000 ft
Heat Index 110 °F
Dew Point 79 °F
Humidity 65%
Rainfall 0.00 in
Snow Depth Not available.
6:41 AM 8:11 PM
Waning Gibbous, 62% visible
METAR KPBI 252053Z 14012KT 10SM SCT026 SCT035 SCT240 32/23 A3003 RMK AO2 SLP169 CB DSNT SW-W NW T03170233 58013
Record highs are possible for parts of the Northeast Monday and Tuesday, as parts of the central U.S. take a little breather from the worst of summer's dog day heat.

Expansive high pressure in the upper atmosphere will focus on parts of the East and West this week, sending heat indices well into the triple digits from the Mid-Atlantic states into the South.

10-Day Weather Forecast

Almanac

Astronomy

Jul. 25, 2016 Rise Set
Actual Time
Civil Twilight
Nautical Twilight
Astronomical Twilight
Moon
Length of Visible Light
Length of Day
Tomorrow will be .
, % of the Moon is Illuminated

Today's Extremes

State Highs State Lows

Community

WunderPhotos

Upload Photos

1,927,423 photos uploaded!

WunderBlog® & News

Nearby

Air Quality

  Air Quality AQ Index Pollutant
Not available.

Snow Depth

Station Depth Elevation

Earthquake Activity

City Distance Mag. Time & Date
Minimum magnitude displayed is 2.5.

Coastal Water Temperatures

Place Temperature

Stations

Nearby Weather Stations

Station Location Temp. Windchill Dew Point Humidity Wind Precip. Elev Updated Type
                   

Watches & Warnings

There are currently no watches in effect.